Adel, Iowa
Current Conditions -  °F | °C
As of 6:15 AM on Monday 20 Oct 2014 (Local Time) from KPRO Reporting Station
Clear Clear  
Wind Chill: 43°   Ceiling: Unl
Heat Index: 43°   Visibility: 10mi
Dew Point: 40°   Wind: 3mph
Humidity: 91%   Direction: 310°NW
Pressure: 30"   Gusts: NA
Location:  41.61°N, 94.02°W
Report Text: KPRO 201115Z AUTO 31003KT 10SM CLR 06/05 A3000 RMK AO2 T00600047
Loading
Personal Weather Stations






























Interactive Weather Map
Tropical Storm Tracking
New forecast layout! Learn more

10-Day Weather Forecast

Advertisements
Track Severe Weather on mobile